createdAt,value
2023-02-19T00:02:35.838Z,7.01
2023-02-19T00:06:44.627Z,7.01
2023-02-19T00:10:51.976Z,6.98
2023-02-19T00:15:00.416Z,6.95
2023-02-19T00:19:13.614Z,6.95
2023-02-19T00:23:21.215Z,6.96
2023-02-19T00:27:29.225Z,7.01
2023-02-19T00:31:38.180Z,7.05
2023-02-19T00:35:46.207Z,7.08
2023-02-19T00:39:54.010Z,7.07
2023-02-19T00:44:05.703Z,7.06
2023-02-19T00:48:17.581Z,7.05
2023-02-19T00:52:35.159Z,7.07
2023-02-19T00:56:45.199Z,7.08
2023-02-19T01:00:52.954Z,7.05
2023-02-19T01:05:01.346Z,7.00
2023-02-19T01:09:09.974Z,6.93
2023-02-19T01:13:17.743Z,6.85
2023-02-19T01:17:26.658Z,6.79
2023-02-19T01:21:35.131Z,6.76
2023-02-19T01:25:43.380Z,6.72
2023-02-19T01:29:51.083Z,6.70
2023-02-19T01:34:01.829Z,6.69
2023-02-19T01:38:10.323Z,6.66
2023-02-19T01:42:19.127Z,6.67
2023-02-19T01:46:28.510Z,6.68
2023-02-19T01:50:40.749Z,6.71
2023-02-19T01:54:49.141Z,6.71
2023-02-19T01:58:58.462Z,6.71
2023-02-19T02:03:06.952Z,6.70
2023-02-19T02:07:29.430Z,6.72
2023-02-19T02:11:37.650Z,6.73
2023-02-19T02:15:50.767Z,6.76
2023-02-19T02:20:08.505Z,6.81
2023-02-19T02:24:34.621Z,6.87
2023-02-19T02:29:09.441Z,6.90
2023-02-19T02:33:26.403Z,6.90
2023-02-19T02:37:37.692Z,6.88
2023-02-19T02:41:48.172Z,6.88
2023-02-19T02:45:56.328Z,6.90
2023-02-19T02:50:07.147Z,6.92
2023-02-19T02:54:35.381Z,6.94
2023-02-19T02:58:42.740Z,6.96
2023-02-19T03:02:50.256Z,6.96
2023-02-19T03:06:58.858Z,6.98
2023-02-19T03:11:23.471Z,6.99
2023-02-19T03:15:55.120Z,6.96
2023-02-19T03:20:05.292Z,6.93
2023-02-19T03:24:32.501Z,6.88
2023-02-19T03:29:02.591Z,6.84
2023-02-19T03:33:13.322Z,6.81
2023-02-19T03:37:25.570Z,6.79
2023-02-19T03:41:38.616Z,6.77
2023-02-19T03:45:52.974Z,6.72
2023-02-19T03:50:05.130Z,6.68
2023-02-19T03:54:17.678Z,6.66
2023-02-19T03:58:28.705Z,6.63
2023-02-19T04:02:39.973Z,6.62
2023-02-19T04:06:54.664Z,6.59
2023-02-19T04:11:03.406Z,6.57
2023-02-19T04:15:14.017Z,6.55
2023-02-19T04:19:25.130Z,6.53
2023-02-19T04:23:39.483Z,6.51
2023-02-19T04:27:47.689Z,6.52
2023-02-19T04:31:55.521Z,6.53
2023-02-19T04:36:03.740Z,6.55
2023-02-19T04:40:13.282Z,6.56
2023-02-19T04:44:21.208Z,6.56
2023-02-19T04:48:29.555Z,6.56
2023-02-19T04:52:38.236Z,6.54
2023-02-19T04:56:46.164Z,6.53
2023-02-19T05:00:56.582Z,6.54
2023-02-19T05:05:06.636Z,6.55
2023-02-19T05:09:14.060Z,6.58
2023-02-19T05:13:21.858Z,6.61
2023-02-19T05:17:31.775Z,6.63
2023-02-19T05:21:39.656Z,6.62
2023-02-19T05:25:47.564Z,6.64
2023-02-19T05:29:55.508Z,6.66
2023-02-19T05:34:03.791Z,6.67
2023-02-19T05:38:13.009Z,6.69
2023-02-19T05:42:26.550Z,6.71
2023-02-19T05:46:34.289Z,6.71
2023-02-19T05:50:41.925Z,6.71
2023-02-19T05:54:49.820Z,6.73
2023-02-19T05:58:58.449Z,6.73
2023-02-19T06:03:06.391Z,6.73
2023-02-19T06:07:15.154Z,6.68
2023-02-19T06:11:23.562Z,6.64
2023-02-19T06:15:31.717Z,6.63
2023-02-19T06:19:40.781Z,6.61
2023-02-19T06:23:49.069Z,6.60
2023-02-19T06:27:56.830Z,6.60
2023-02-19T06:32:04.286Z,6.56
2023-02-19T06:36:15.001Z,6.51
2023-02-19T06:40:22.807Z,6.43
2023-02-19T06:44:38.999Z,6.35
2023-02-19T06:48:49.074Z,6.28
2023-02-19T06:52:57.091Z,6.19
2023-02-19T06:57:04.808Z,6.14
2023-02-19T07:01:14.726Z,6.09
2023-02-19T07:05:21.902Z,6.04
2023-02-19T07:09:30.423Z,6.03
2023-02-19T07:13:38.556Z,6.00
2023-02-19T07:17:47.871Z,5.99
2023-02-19T07:21:56.523Z,5.97
2023-02-19T07:26:04.341Z,5.93
2023-02-19T07:30:14.791Z,5.85
2023-02-19T07:34:22.551Z,5.77
2023-02-19T07:38:30.488Z,5.66
2023-02-19T07:42:38.319Z,5.52
2023-02-19T07:46:46.276Z,5.34
2023-02-19T07:50:59.168Z,5.20
2023-02-19T07:55:07.408Z,5.09
2023-02-19T07:59:16.308Z,4.98
2023-02-19T08:03:24.126Z,4.85
2023-02-19T08:07:36.334Z,4.73
2023-02-19T08:12:01.278Z,4.64
2023-02-19T08:16:26.634Z,4.58
2023-02-19T08:20:42.769Z,4.51
2023-02-19T08:24:51.686Z,4.42
2023-02-19T08:28:59.358Z,4.23
2023-02-19T08:33:08.652Z,4.04
2023-02-19T08:37:16.554Z,3.88
2023-02-19T08:41:24.006Z,3.77
2023-02-19T08:45:34.166Z,3.67
2023-02-19T08:49:43.134Z,3.60
2023-02-19T08:53:51.396Z,3.58
2023-02-19T08:57:59.394Z,3.56
2023-02-19T09:02:07.564Z,3.53
2023-02-19T09:06:19.039Z,3.53
2023-02-19T09:10:27.189Z,3.52
2023-02-19T09:14:37.493Z,3.45
2023-02-19T09:18:45.961Z,3.39
2023-02-19T09:22:53.801Z,3.38
2023-02-19T09:27:01.591Z,3.39
2023-02-19T09:31:11.166Z,3.41
2023-02-19T09:35:19.479Z,3.45
2023-02-19T09:39:26.814Z,3.54
2023-02-19T09:43:35.153Z,3.59
2023-02-19T09:47:43.362Z,3.61
2023-02-19T09:51:52.749Z,3.65
2023-02-19T09:56:00.249Z,3.70
2023-02-19T10:00:15.146Z,3.68
2023-02-19T10:04:22.998Z,3.67
2023-02-19T10:08:36.112Z,3.67
2023-02-19T10:12:47.790Z,3.75
2023-02-19T10:16:55.583Z,3.84
2023-02-19T10:21:03.420Z,3.86
2023-02-19T10:25:13.980Z,3.89
2023-02-19T10:29:22.171Z,3.89
2023-02-19T10:33:30.172Z,3.83
2023-02-19T10:37:38.469Z,3.85
2023-02-19T10:41:46.175Z,3.92
2023-02-19T10:45:54.135Z,4.04
2023-02-19T10:50:04.639Z,4.15
2023-02-19T10:54:19.297Z,4.25
2023-02-19T10:58:28.672Z,4.38
2023-02-19T11:02:37.232Z,4.45
2023-02-19T11:06:45.711Z,4.51
2023-02-19T11:10:53.322Z,4.52
2023-02-19T11:15:02.172Z,4.54
2023-02-19T11:19:18.862Z,4.56
2023-02-19T11:23:29.573Z,4.62
2023-02-19T11:27:37.511Z,4.63
2023-02-19T11:31:45.035Z,4.65
2023-02-19T11:35:54.070Z,4.77
2023-02-19T11:40:02.335Z,4.96
2023-02-19T11:44:25.898Z,5.04
2023-02-19T11:48:53.871Z,5.05
2023-02-19T11:53:12.088Z,4.99
2023-02-19T11:57:27.486Z,4.93
2023-02-19T12:01:53.853Z,4.89
2023-02-19T12:06:13.647Z,4.99
2023-02-19T12:10:25.899Z,5.09
2023-02-19T12:14:52.733Z,5.13
2023-02-19T12:19:29.523Z,5.12
2023-02-19T12:23:50.334Z,5.13
2023-02-19T12:28:15.222Z,5.06
2023-02-19T12:32:39.045Z,5.04
2023-02-19T12:36:54.856Z,5.14
2023-02-19T12:41:15.255Z,5.40
2023-02-19T12:45:25.959Z,5.66
2023-02-19T12:49:37.054Z,5.74
2023-02-19T12:53:50.355Z,5.63
2023-02-19T12:57:58.374Z,5.50
2023-02-19T13:02:11.564Z,5.39
2023-02-19T13:06:25.894Z,5.41
2023-02-19T13:10:38.003Z,5.50
2023-02-19T13:14:48.881Z,5.51
2023-02-19T13:18:58.268Z,5.50
2023-02-19T13:23:29.445Z,5.49
2023-02-19T13:27:59.670Z,5.42
2023-02-19T13:32:26.730Z,5.44
2023-02-19T13:36:36.542Z,5.45
2023-02-19T13:40:56.335Z,5.42
2023-02-19T13:45:06.120Z,5.41
2023-02-19T13:49:43.536Z,5.43
2023-02-19T13:54:01.142Z,5.54
2023-02-19T13:58:39.832Z,5.59
2023-02-19T14:02:47.499Z,5.55
2023-02-19T14:07:36.756Z,5.51
2023-02-19T14:12:06.926Z,5.52
2023-02-19T14:16:33.797Z,5.55
2023-02-19T14:20:46.550Z,5.46
2023-02-19T14:24:57.087Z,5.40
2023-02-19T14:29:09.061Z,5.26
2023-02-19T14:33:19.438Z,5.13
2023-02-19T14:37:28.897Z,4.99
2023-02-19T14:41:40.875Z,4.90
2023-02-19T14:45:52.034Z,4.80
2023-02-19T14:50:04.122Z,4.74
2023-02-19T14:54:16.489Z,4.76
2023-02-19T14:58:29.808Z,4.77
2023-02-19T15:02:45.432Z,4.76
2023-02-19T15:06:56.936Z,4.73
2023-02-19T15:11:06.196Z,4.71
2023-02-19T15:15:20.390Z,4.72
2023-02-19T15:19:29.458Z,4.72
2023-02-19T15:23:37.896Z,4.69
2023-02-19T15:27:45.191Z,4.67
2023-02-19T15:31:55.299Z,4.66
2023-02-19T15:36:06.448Z,4.65
2023-02-19T15:40:19.087Z,4.64
2023-02-19T15:44:36.926Z,4.62
2023-02-19T15:48:48.263Z,4.59
2023-02-19T15:53:00.515Z,4.54
2023-02-19T15:57:13.781Z,4.48
2023-02-19T16:01:26.597Z,4.39
2023-02-19T16:05:40.081Z,4.32
2023-02-19T16:09:48.794Z,4.24
2023-02-19T16:14:16.897Z,4.16
2023-02-19T16:18:25.094Z,4.08
2023-02-19T16:22:37.155Z,4.01
2023-02-19T16:26:46.193Z,3.95
2023-02-19T16:31:01.173Z,3.88
2023-02-19T16:35:22.495Z,3.82
2023-02-19T16:39:32.761Z,3.77
2023-02-19T16:43:45.283Z,3.72
2023-02-19T16:47:53.497Z,3.65
2023-02-19T16:52:04.210Z,3.58
2023-02-19T16:56:18.628Z,3.54
2023-02-19T17:00:28.024Z,3.46
2023-02-19T17:04:36.204Z,3.40
2023-02-19T17:08:44.387Z,3.36
2023-02-19T17:12:52.421Z,3.36
2023-02-19T17:17:02.439Z,3.35
2023-02-19T17:21:17.752Z,3.35
2023-02-19T17:25:25.742Z,3.37
2023-02-19T17:29:34.297Z,3.38
2023-02-19T17:33:42.772Z,3.39
2023-02-19T17:37:52.378Z,3.36
2023-02-19T17:42:00.701Z,3.31
2023-02-19T17:46:08.804Z,3.26
2023-02-19T17:50:19.055Z,3.22
2023-02-19T17:54:26.708Z,3.18
2023-02-19T17:58:36.281Z,3.13
2023-02-19T18:02:44.513Z,3.09
2023-02-19T18:06:54.077Z,3.04
2023-02-19T18:11:04.921Z,2.98
2023-02-19T18:15:18.448Z,2.94
2023-02-19T18:19:27.394Z,2.92
2023-02-19T18:23:35.286Z,2.92
2023-02-19T18:27:45.601Z,2.92
2023-02-19T18:31:53.840Z,2.93
2023-02-19T18:36:01.553Z,2.95
2023-02-19T18:40:11.778Z,2.96
2023-02-19T18:44:22.115Z,2.94
2023-02-19T18:48:30.558Z,2.91
2023-02-19T18:52:38.034Z,2.89
2023-02-19T18:56:47.333Z,2.87
2023-02-19T19:00:55.296Z,2.84
2023-02-19T19:05:03.335Z,2.82
2023-02-19T19:09:11.524Z,2.78
2023-02-19T19:13:19.099Z,2.77
2023-02-19T19:17:26.997Z,2.76
2023-02-19T19:21:34.792Z,2.75
2023-02-19T19:25:43.215Z,2.73
2023-02-19T19:29:51.630Z,2.70
2023-02-19T19:33:59.301Z,2.69
2023-02-19T19:38:08.397Z,2.67
2023-02-19T19:42:18.728Z,2.66
2023-02-19T19:46:26.716Z,2.65
2023-02-19T19:50:35.058Z,2.64
2023-02-19T19:54:44.120Z,2.61
2023-02-19T19:58:52.427Z,2.59
2023-02-19T20:03:01.389Z,2.55
2023-02-19T20:07:10.231Z,2.51
2023-02-19T20:11:20.707Z,2.46
2023-02-19T20:15:28.548Z,2.43
2023-02-19T20:19:36.886Z,2.40
2023-02-19T20:23:44.932Z,2.38
2023-02-19T20:27:54.780Z,2.37
2023-02-19T20:32:05.177Z,2.37
2023-02-19T20:36:13.860Z,2.37
2023-02-19T20:40:24.534Z,2.38
2023-02-19T20:44:32.261Z,2.37
2023-02-19T20:48:39.901Z,2.35
2023-02-19T20:52:47.792Z,2.33
2023-02-19T20:56:57.105Z,2.31
2023-02-19T21:01:05.476Z,2.31
2023-02-19T21:05:13.788Z,2.28
2023-02-19T21:09:21.876Z,2.25
2023-02-19T21:13:30.338Z,2.19
2023-02-19T21:17:38.212Z,2.15
2023-02-19T21:21:46.345Z,2.12
2023-02-19T21:25:54.997Z,2.11
2023-02-19T21:30:03.171Z,2.10
2023-02-19T21:34:12.610Z,2.10
2023-02-19T21:38:21.179Z,2.09
2023-02-19T21:42:29.193Z,2.08
2023-02-19T21:46:37.374Z,2.09
2023-02-19T21:50:46.104Z,2.08
2023-02-19T21:54:54.073Z,2.07
2023-02-19T21:59:01.991Z,2.07
2023-02-19T22:03:10.557Z,2.07
2023-02-19T22:07:18.734Z,2.05
2023-02-19T22:11:26.227Z,2.04
2023-02-19T22:15:34.182Z,2.02
2023-02-19T22:19:42.016Z,2.00
2023-02-19T22:23:51.156Z,1.96
2023-02-19T22:28:00.169Z,1.93
2023-02-19T22:32:08.537Z,1.89
2023-02-19T22:36:21.888Z,1.84
2023-02-19T22:40:30.177Z,1.80
2023-02-19T22:44:38.441Z,1.79
2023-02-19T22:48:46.244Z,1.79
2023-02-19T22:52:55.306Z,1.80
2023-02-19T22:57:03.926Z,1.82
2023-02-19T23:01:12.322Z,1.81
2023-02-19T23:05:20.642Z,1.81
2023-02-19T23:09:30.443Z,1.80
2023-02-19T23:13:39.022Z,1.79
2023-02-19T23:17:46.735Z,1.78
2023-02-19T23:21:54.505Z,1.77
2023-02-19T23:26:02.005Z,1.74
2023-02-19T23:30:11.725Z,1.74
2023-02-19T23:34:19.781Z,1.77
2023-02-19T23:38:28.566Z,1.80
2023-02-19T23:42:38.315Z,1.83
2023-02-19T23:46:46.129Z,1.84
2023-02-19T23:50:53.838Z,1.83
2023-02-19T23:55:02.020Z,1.81
2023-02-19T23:59:10.011Z,1.79
